M I D A S
Marine Information and Data Acquisition System
Tripno 1246 of the Zeeleeuw from 2007-04-17 08:41:57 to 2007-04-17 12:48:01
Back to CruiseResearch ActivitiesStationsMapUnderway DataData graphs

EquipmentUnitsComment
TimeDGPSUTC
LatitudeDGPSDM.mWGS84
LongitudeDGPSDM.mWGS84
HeadingGyrodeg 
SOGDGPSknotsSpeed over ground
COGDGPSdegCourse over ground
DepthEcho soundermeters200 kHz
Missing or incorrect values are displayed as -999
Navigation data collected by the RV Zeeleeuw from 2007-04-17 08:44:07 to 2007-04-17 13:00:31
Time Latitude Longitude Heading SOG COG Depth
2007-04-17 08:45:12 51°13.613 2°56.055 117.2 3.3 294 -999
2007-04-17 08:46:12 51°13.638 2°55.97 120.5 3.6 296 -999
2007-04-17 08:47:12 51°13.668 2°55.88 122 3.7 298 -999
2007-04-17 08:48:11 51°13.691 2°55.8 118.2 3 294 4.6
2007-04-17 08:49:11 51°13.706 2°55.742 115.2 0.9 289 12.3
2007-04-17 08:50:11 51°13.706 2°55.743 80.5 1 249 12.6
2007-04-17 08:51:12 51°13.702 2°55.723 70.2 0.1 48 -999
2007-04-17 08:52:11 51°13.718 2°55.743 27.8 1.1 24 11.9
2007-04-17 08:53:12 51°13.707 2°55.743 8.7 0.4 187 -999
2007-04-17 08:54:11 51°13.738 2°55.719 333.8 4.4 329 11.2
2007-04-17 08:55:11 51°13.831 2°55.638 337.5 7.3 333 10.7
2007-04-17 08:56:11 51°13.949 2°55.548 340.4 8.4 334 10.9
2007-04-17 08:57:11 51°14.078 2°55.452 340.8 8.7 337 11.2
2007-04-17 08:58:11 51°14.202 2°55.344 327.7 8.7 320 4.6
2007-04-17 08:59:11 51°14.315 2°55.155 315.1 11 310 10.7
2007-04-17 09:00:11 51°14.419 2°54.873 302.5 13.1 298 10.6
2007-04-17 09:01:11 51°14.511 2°54.549 299.6 13.6 290 11
2007-04-17 09:02:11 51°14.583 2°54.204 296.2 13.8 287 11
2007-04-17 09:03:11 51°14.629 2°53.851 284.7 13.7 278 11.3
2007-04-17 09:04:11 51°14.649 2°53.494 279.7 13.6 271 8.2
2007-04-17 09:05:11 51°14.65 2°53.131 277.6 13.9 270 8.3
2007-04-17 09:06:11 51°14.652 2°52.765 277.4 14 268 8.8
2007-04-17 09:07:11 51°14.619 2°52.392 269.5 14 261 8.9
2007-04-17 09:08:11 51°14.535 2°52.038 253.1 14.4 246 9
2007-04-17 09:09:11 51°14.446 2°51.684 254 14.3 250 8.7
2007-04-17 09:10:11 51°14.36 2°51.327 255.2 14.5 250 8.7
2007-04-17 09:11:11 51°14.274 2°50.969 255.1 14.4 247 8.6
2007-04-17 09:12:11 51°14.186 2°50.61 254.7 14.5 251 8.5
2007-04-17 09:13:11 51°14.104 2°50.297 245.5 9.3 235 8.9
2007-04-17 09:14:11 51°14.016 2°50.205 201.3 4.6 208 8.7
2007-04-17 09:15:11 51°13.973 2°50.146 234.5 3 228 8.6
2007-04-17 09:16:11 51°13.939 2°50.082 246.8 3.5 236 8.4
2007-04-17 09:17:11 51°13.919 2°49.984 281.8 4 264 8.4
2007-04-17 09:18:11 51°13.922 2°49.865 295.3 4.6 273 8.6
2007-04-17 09:19:11 51°13.923 2°49.742 286.2 4.5 263 8.5
2007-04-17 09:20:11 51°13.913 2°49.64 284.3 3.4 258 8.9
2007-04-17 09:21:11 51°13.9 2°49.559 282.8 3.2 254 9.1
2007-04-17 09:22:11 51°13.882 2°49.474 268.3 3.6 249 9.2
2007-04-17 09:23:11 51°13.863 2°49.385 271.5 3.4 251 9.4
2007-04-17 09:24:11 51°13.842 2°49.302 265.7 3.4 243 9.5
2007-04-17 09:25:11 51°13.816 2°49.223 259.5 3.5 240 9.2
2007-04-17 09:26:11 51°13.787 2°49.144 253.4 3.4 238 9.4
2007-04-17 09:27:11 51°13.758 2°49.064 259 3.4 239 9.5
2007-04-17 09:28:11 51°13.733 2°48.985 265.1 3.2 245 9.2
2007-04-17 09:29:11 51°13.709 2°48.906 261.8 3.3 243 9
2007-04-17 09:30:11 51°13.685 2°48.827 260.9 3.4 242 9.4
2007-04-17 09:31:11 51°13.659 2°48.749 258.4 3.3 242 9.7
2007-04-17 09:32:11 51°13.631 2°48.672 254.3 3.3 237 9.6
2007-04-17 09:33:11 51°13.599 2°48.597 247.4 3.4 235 9.9
2007-04-17 09:34:11 51°13.565 2°48.525 244.2 3.4 232 9.6
2007-04-17 09:35:11 51°13.532 2°48.451 249.4 3.4 237 9.4
2007-04-17 09:36:11 51°13.503 2°48.377 253.6 3.3 238 9.3
2007-04-17 09:37:11 51°13.476 2°48.302 258.7 3.2 241 9.7
2007-04-17 09:38:11 51°13.454 2°48.225 262.7 3.2 246 9.3
2007-04-17 09:39:11 51°13.433 2°48.149 265.8 3.1 247 9.1
2007-04-17 09:40:11 51°13.414 2°48.073 269 3.1 250 9.7
2007-04-17 09:41:11 51°13.398 2°47.997 276.1 2.8 258 9.9
2007-04-17 09:42:11 51°13.389 2°47.926 286.9 2.7 260 10.3
2007-04-17 09:43:11 51°13.383 2°47.859 292.2 2.4 266 10.3
2007-04-17 09:44:11 51°13.385 2°47.802 316.1 1.9 279 10.6
2007-04-17 09:45:11 51°13.386 2°47.76 315.8 1.4 267 10.6
2007-04-17 09:46:11 51°13.38 2°47.727 312.2 1.2 249 11.1
2007-04-17 09:47:11 51°13.371 2°47.701 309.9 1.1 234 10.4
2007-04-17 09:48:11 51°13.373 2°47.663 329.6 2.4 310 10.2
2007-04-17 09:49:11 51°13.416 2°47.675 47.9 3.8 59 11
2007-04-17 09:50:11 51°13.426 2°47.829 74.4 8.5 77 10.9
2007-04-17 09:51:11 51°13.457 2°48.065 78.4 7.1 85 10.3
2007-04-17 09:52:11 51°13.433 2°48.173 121.9 2.3 139 9.1
2007-04-17 09:53:11 51°13.417 2°48.172 148.9 0.9 202 9
2007-04-17 09:54:11 51°13.403 2°48.162 162.1 1 203 9.5
2007-04-17 09:55:11 51°13.386 2°48.152 164.5 1.1 195 9.5
2007-04-17 09:56:11 51°13.369 2°48.145 151.3 1.1 190 9.5
2007-04-17 09:57:11 51°13.348 2°48.151 133.3 2 147 9.5
2007-04-17 09:58:11 51°13.336 2°48.21 76.1 2.9 77 9.4
2007-04-17 09:59:11 51°13.38 2°48.346 62.4 9.3 62 9.4
2007-04-17 10:00:11 51°13.483 2°48.605 56.1 12.3 55 9.3
2007-04-17 10:01:11 51°13.603 2°48.877 56.8 12.6 55 9.8
2007-04-17 10:02:11 51°13.722 2°49.151 57.2 12.7 56 9.9
2007-04-17 10:03:11 51°13.842 2°49.427 57.3 12.6 56 9.8
2007-04-17 10:04:11 51°13.961 2°49.699 57.3 12.4 56 10
2007-04-17 10:05:11 51°14.079 2°49.973 56.9 12.6 56 10.1
2007-04-17 10:06:11 51°14.198 2°50.25 57.1 12.8 56 10.5
2007-04-17 10:07:11 51°14.316 2°50.526 57.3 11.8 56 10.9
2007-04-17 10:08:11 51°14.38 2°50.7 63.9 5 69 11
2007-04-17 10:09:11 51°14.374 2°50.803 116.8 3.7 127 11.2
2007-04-17 10:10:11 51°14.321 2°50.846 172 3.7 174 10.9
2007-04-17 10:11:11 51°14.265 2°50.813 224.2 3.7 216 10.6
2007-04-17 10:12:11 51°14.216 2°50.742 232.9 4.1 224 10.6
2007-04-17 10:13:11 51°14.17 2°50.662 235.9 4 228 10.6
2007-04-17 10:14:11 51°14.126 2°50.594 231.2 3.4 221 10.4
2007-04-17 10:15:11 51°14.084 2°50.542 228.6 3 216 10.3
2007-04-17 10:16:11 51°14.045 2°50.495 228.7 2.9 217 10.2
2007-04-17 10:17:11 51°14.007 2°50.45 227.6 2.7 214 10.1
2007-04-17 10:18:11 51°13.975 2°50.405 245.3 2.3 236 10.1
2007-04-17 10:19:11 51°13.964 2°50.352 273.6 2 267 10.3
2007-04-17 10:20:11 51°13.972 2°50.301 296.4 1.9 295 10.5
2007-04-17 10:21:11 51°13.991 2°50.261 317 2 317 10.4
2007-04-17 10:22:11 51°14.019 2°50.235 337.8 2.1 344 10.6
2007-04-17 10:23:11 51°14.053 2°50.233 359 2.2 9 10.8
2007-04-17 10:24:11 51°14.086 2°50.26 30.6 2.4 45 10.9
2007-04-17 10:25:11 51°14.11 2°50.319 57.1 2.8 65 10.8
2007-04-17 10:26:11 51°14.132 2°50.396 58.7 3.5 65 11.2
2007-04-17 10:27:11 51°14.159 2°50.482 60.2 3.8 65 11.1
2007-04-17 10:28:11 51°14.181 2°50.581 70.4 4 74 11.3
2007-04-17 10:29:11 51°14.205 2°50.677 61.9 3.9 66 11.2
2007-04-17 10:30:11 51°14.233 2°50.771 60.7 4 65 11.3
2007-04-17 10:31:11 51°14.261 2°50.867 62.2 4 65 11.4
2007-04-17 10:32:11 51°14.289 2°50.963 61.2 4 64 11.4
2007-04-17 10:33:11 51°14.316 2°51.052 60.1 3.5 65 11.4
2007-04-17 10:34:11 51°14.339 2°51.134 60.3 3.2 66 11.5
2007-04-17 10:35:11 51°14.359 2°51.212 62.2 3.2 69 11.6
2007-04-17 10:36:11 51°14.379 2°51.289 61.9 3.2 67 11.8
2007-04-17 10:37:11 51°14.401 2°51.367 62 3.3 68 11.8
2007-04-17 10:38:11 51°14.419 2°51.448 72.7 3.3 75 11.7
2007-04-17 10:39:11 51°14.426 2°51.535 90.9 3.3 87 11.8
2007-04-17 10:40:11 51°14.423 2°51.62 111.7 3.2 101 11.8
2007-04-17 10:41:11 51°14.404 2°51.702 141.5 3.2 121 11.6
2007-04-17 10:42:11 51°14.372 2°51.744 187.6 2 146 11.5
2007-04-17 10:43:11 51°14.35 2°51.772 184.5 1.5 137 11.4
2007-04-17 10:44:11 51°14.334 2°51.804 172.8 1.6 123 11.4
2007-04-17 10:45:11 51°14.323 2°51.84 158.2 1.5 111 11.3
2007-04-17 10:46:11 51°14.319 2°51.88 139.3 1.6 91 11.3
2007-04-17 10:47:11 51°14.319 2°51.922 125.3 1.6 85 11.3
2007-04-17 10:48:11 51°14.31 2°51.979 144.1 3.4 130 11.2
2007-04-17 10:49:11 51°14.263 2°51.983 229.3 3 232 10.9
2007-04-17 10:50:11 51°14.282 2°51.9 302.9 4.5 315 10.9
2007-04-17 10:51:11 51°14.339 2°51.783 298.6 7.4 302 11.5
2007-04-17 10:52:11 51°14.393 2°51.587 284.1 6.7 285 11.8
2007-04-17 10:53:11 51°14.39 2°51.49 248.7 1.3 245 12
2007-04-17 10:54:11 51°14.386 2°51.494 232.2 0.4 137 12.2
2007-04-17 10:55:11 51°14.381 2°51.501 237.3 0.4 120 12.1
2007-04-17 10:56:11 51°14.379 2°51.511 243.9 0.4 90 12.1
2007-04-17 10:57:11 51°14.38 2°51.521 251.7 0.4 71 12.1
2007-04-17 10:58:11 51°14.384 2°51.534 263 0.5 58 12.2
2007-04-17 10:59:11 51°14.39 2°51.547 274 0.8 49 12
2007-04-17 11:00:11 51°14.398 2°51.565 280.9 0.9 56 12.2
2007-04-17 11:01:11 51°14.406 2°51.587 287.6 1 60 12.3
2007-04-17 11:02:11 51°14.416 2°51.61 295.7 1.1 58 12.2
2007-04-17 11:03:11 51°14.426 2°51.633 300.5 1.1 52 12.4
2007-04-17 11:04:11 51°14.441 2°51.645 304 1.2 357 12.4
2007-04-17 11:05:11 51°14.465 2°51.635 299 1.6 337 12.6
2007-04-17 11:06:11 51°14.487 2°51.609 289.9 1.7 318 12.8
2007-04-17 11:07:11 51°14.512 2°51.582 296 2 330 12.9
2007-04-17 11:08:11 51°14.54 2°51.569 303.3 1.6 355 13
2007-04-17 11:09:11 51°14.564 2°51.573 308.2 1.5 15 13.1
2007-04-17 11:10:11 51°14.584 2°51.587 311.5 1.2 32 13.2
2007-04-17 11:11:11 51°14.6 2°51.608 314.8 1.3 45 13.3
2007-04-17 11:12:11 51°14.623 2°51.6 286.5 2 307 13.3
2007-04-17 11:13:11 51°14.608 2°51.512 250.8 7.3 249 13.2
2007-04-17 11:14:11 51°14.543 2°51.259 245.5 11.2 240 13.1
2007-04-17 11:15:11 51°14.442 2°51.001 242.3 11.5 235 12.9
2007-04-17 11:16:11 51°14.342 2°50.739 241.6 11.5 241 12.8
2007-04-17 11:17:11 51°14.243 2°50.477 241.1 11.6 240 12.6
2007-04-17 11:18:11 51°14.145 2°50.215 241.2 11.6 241 12.4
2007-04-17 11:19:11 51°14.047 2°49.954 240.9 11.5 241 12.1
2007-04-17 11:20:11 51°13.948 2°49.694 241.7 11.5 236 11.9
2007-04-17 11:21:11 51°13.852 2°49.435 243.5 11.5 234 12.1
2007-04-17 11:22:11 51°13.753 2°49.178 241.6 11.4 237 12.3
2007-04-17 11:23:11 51°13.655 2°48.92 241.6 11.4 241 11.4
2007-04-17 11:24:11 51°13.558 2°48.659 242 11.3 242 12.1
2007-04-17 11:25:11 51°13.46 2°48.399 240.9 11.4 237 11.6
2007-04-17 11:26:11 51°13.361 2°48.139 242.7 11.4 236 11.6
2007-04-17 11:27:11 51°13.264 2°47.876 241.9 11.7 237 11.8
2007-04-17 11:28:11 51°13.164 2°47.613 241.7 11.7 241 12.1
2007-04-17 11:29:11 51°13.064 2°47.351 242.8 11.6 239 12
2007-04-17 11:30:11 51°12.99 2°47.067 252.3 11.6 249 11.9
2007-04-17 11:31:11 51°12.921 2°46.777 251.9 11.6 250 11.7
2007-04-17 11:32:11 51°12.853 2°46.485 251.1 11.9 250 12.3
2007-04-17 11:33:11 51°12.783 2°46.194 251.7 11.8 249 12.9
2007-04-17 11:34:11 51°12.715 2°45.9 251.1 11.6 250 12.8
2007-04-17 11:35:11 51°12.658 2°45.743 231.2 4.2 217 12.9
2007-04-17 11:36:11 51°12.608 2°45.714 213.1 2.8 196 12.5
2007-04-17 11:37:11 51°12.573 2°45.661 248.6 3.5 253 12.4
2007-04-17 11:38:11 51°12.592 2°45.575 295 3.1 310 12.8
2007-04-17 11:39:11 51°12.627 2°45.518 296.9 2.9 313 12.4
2007-04-17 11:40:11 51°12.663 2°45.456 298.6 3.4 315 12
2007-04-17 11:41:11 51°12.699 2°45.394 294.6 3 308 12
2007-04-17 11:42:11 51°12.706 2°45.329 254.5 2.7 251 11.7
2007-04-17 11:43:12 51°12.691 2°45.236 260 3.8 264 11.9
2007-04-17 11:44:11 51°12.683 2°45.148 254.3 3.2 252 12.1
2007-04-17 11:45:11 51°12.652 2°45.083 233.6 3.2 224 11.9
2007-04-17 11:46:11 51°12.618 2°45.016 242.6 3.3 240 12.1
2007-04-17 11:47:11 51°12.59 2°44.942 242.7 3.3 236 12
2007-04-17 11:48:12 51°12.554 2°44.873 234.5 3.4 227 12.1
2007-04-17 11:49:11 51°12.516 2°44.808 236.6 3.4 229 12.2
2007-04-17 11:50:11 51°12.481 2°44.738 239.3 3.4 235 12.3
2007-04-17 11:51:11 51°12.449 2°44.663 242.7 3.4 239 12.1
2007-04-17 11:52:11 51°12.419 2°44.585 242.7 3.4 237 12.2
2007-04-17 11:53:11 51°12.383 2°44.513 237.3 3.5 231 12.1
2007-04-17 11:54:11 51°12.352 2°44.437 244.1 3.4 241 12.3
2007-04-17 11:55:11 51°12.324 2°44.361 241.9 3.4 238 11.6
2007-04-17 11:56:11 51°12.291 2°44.29 239.1 3.3 234 12.1
2007-04-17 11:57:11 51°12.259 2°44.219 240 3.3 235 12.2
2007-04-17 11:58:11 51°12.228 2°44.146 240.6 3.3 238 12.4
2007-04-17 11:59:12 51°12.198 2°44.069 243.1 3.4 242 12.1
2007-04-17 12:00:11 51°12.173 2°43.99 245.8 3.4 248 12.2
2007-04-17 12:01:12 51°12.162 2°43.901 257.6 3.3 260 12
2007-04-17 12:02:11 51°12.158 2°43.818 268.5 3.2 285 12.4
2007-04-17 12:03:11 51°12.192 2°43.746 303.6 3.7 325 13.1
2007-04-17 12:04:11 51°12.252 2°43.738 356.6 3.6 20 13.9
2007-04-17 12:05:11 51°12.298 2°43.781 14.2 2.8 36 14.3
2007-04-17 12:06:12 51°12.331 2°43.824 10 2.2 43 14
2007-04-17 12:07:11 51°12.36 2°43.865 19.5 3.1 43 14.5
2007-04-17 12:08:11 51°12.39 2°43.965 94.3 4.9 87 14.6
2007-04-17 12:09:11 51°12.351 2°44.099 136.9 6.9 121 13.8
2007-04-17 12:10:11 51°12.292 2°44.259 130.9 5.4 114 12.3
2007-04-17 12:11:11 51°12.286 2°44.332 105.1 1 65 11.8
2007-04-17 12:12:12 51°12.293 2°44.358 108.2 1 70 4.7
2007-04-17 12:13:12 51°12.298 2°44.386 122.8 1.2 71 -999
2007-04-17 12:14:11 51°12.303 2°44.415 133.6 1.3 75 11.6
2007-04-17 12:15:12 51°12.307 2°44.448 135.6 1.3 80 11.7
2007-04-17 12:16:11 51°12.31 2°44.479 130.8 1.2 86 11.7
2007-04-17 12:17:12 51°12.313 2°44.514 123.1 1.4 84 11.8
2007-04-17 12:18:11 51°12.32 2°44.588 78.8 5 69 11.7
2007-04-17 12:19:11 51°12.389 2°44.832 69.9 13.7 67 11.5
2007-04-17 12:20:12 51°12.486 2°45.187 69.7 14.6 67 11.1
2007-04-17 12:21:11 51°12.586 2°45.533 67.2 14.5 64 12.1
2007-04-17 12:22:12 51°12.699 2°45.882 66.4 14.6 63 12.6
2007-04-17 12:23:12 51°12.812 2°46.225 66.2 14.6 62 13
2007-04-17 12:24:12 51°12.924 2°46.567 66.1 14.6 62 12.3
2007-04-17 12:25:11 51°13.034 2°46.904 66.1 14.4 63 12.3
2007-04-17 12:26:12 51°13.146 2°47.248 66 14.5 62 11.7
2007-04-17 12:27:12 51°13.259 2°47.589 66.2 14.4 62 12.4
2007-04-17 12:28:12 51°13.371 2°47.928 66.2 14.5 62 12.5
2007-04-17 12:29:12 51°13.484 2°48.267 66.1 14.5 62 12.3
2007-04-17 12:30:12 51°13.599 2°48.607 65.3 14.5 62 12.3
2007-04-17 12:31:12 51°13.715 2°48.945 66 14.6 62 11.6
2007-04-17 12:32:12 51°13.83 2°49.286 66.1 14.6 62 12.3
2007-04-17 12:33:12 51°13.942 2°49.63 67.6 14.6 62 12
2007-04-17 12:34:12 51°14.042 2°49.983 71.8 14.7 67 11.9
2007-04-17 12:35:12 51°14.138 2°50.339 71.6 14.6 67 12
2007-04-17 12:36:12 51°14.234 2°50.693 71.6 14.6 67 12.3
2007-04-17 12:37:12 51°14.314 2°51.058 77.1 14.6 72 12.2
2007-04-17 12:38:12 51°14.383 2°51.427 81.4 14.4 77 12.1
2007-04-17 12:39:11 51°14.441 2°51.793 82.6 14.4 77 12.2
2007-04-17 12:40:11 51°14.497 2°52.169 82.7 14.7 77 12.3
2007-04-17 12:41:12 51°14.556 2°52.556 83.2 14.7 77 12.3
2007-04-17 12:42:11 51°14.599 2°52.924 87.5 14.4 83 12.2
2007-04-17 12:43:11 51°14.616 2°53.311 95.2 14.5 90 11.8
2007-04-17 12:44:11 51°14.611 2°53.698 99.7 14.7 92 12.4
2007-04-17 12:45:11 51°14.577 2°54.083 109.3 14.6 100 14.9
2007-04-17 12:46:11 51°14.514 2°54.452 116.3 14.5 107 14.1
2007-04-17 12:47:12 51°14.436 2°54.821 120.7 14.5 109 14.2
2007-04-17 12:48:11 51°14.326 2°55.14 130.5 13.6 126 14.5
2007-04-17 12:49:12 51°14.199 2°55.347 145.2 8.8 145 -999
2007-04-17 12:50:11 51°14.084 2°55.441 157.4 7.5 155 -999
2007-04-17 12:51:12 51°13.975 2°55.523 158.5 6.3 155 14.3
2007-04-17 12:52:11 51°13.89 2°55.584 157.3 5.4 155 13.8
2007-04-17 12:53:11 51°13.803 2°55.656 152.7 6 148 14.2
2007-04-17 12:54:11 51°13.733 2°55.744 141 5 136 14.7
2007-04-17 12:55:11 51°13.679 2°55.841 132 4.7 128 13.1
2007-04-17 12:56:12 51°13.635 2°55.938 125.8 4 122 13.3
2007-04-17 12:57:12 51°13.607 2°56.015 119.7 2.9 115 13.9
2007-04-17 12:58:11 51°13.593 2°56.079 108.1 2 104 13.2
2007-04-17 12:59:12 51°13.586 2°56.115 115.6 0.9 111 10.7
2007-04-17 13:00:12 51°13.583 2°56.127 128 0.1 156 10.6